sensor_id;sensor_type;location;lat;lon;timestamp;P1;durP1;ratioP1;P2;durP2;ratioP2
20104;SDS011;10212;42.714;23.310;2022-09-27T00:03:11;23.55;;;16.65;;
20104;SDS011;10212;42.714;23.310;2022-09-27T00:08:11;20.98;;;16.05;;
20104;SDS011;10212;42.714;23.310;2022-09-27T00:13:12;27.10;;;16.05;;
20104;SDS011;10212;42.714;23.310;2022-09-27T00:18:12;21.13;;;15.07;;
20104;SDS011;10212;42.714;23.310;2022-09-27T00:23:13;31.33;;;15.35;;
20104;SDS011;10212;42.714;23.310;2022-09-27T00:28:13;28.25;;;16.40;;
20104;SDS011;10212;42.714;23.310;2022-09-27T00:33:14;19.15;;;15.18;;
20104;SDS011;10212;42.714;23.310;2022-09-27T00:38:14;19.75;;;15.82;;
20104;SDS011;10212;42.714;23.310;2022-09-27T00:43:19;22.25;;;15.45;;
20104;SDS011;10212;42.714;23.310;2022-09-27T00:48:23;26.58;;;16.98;;
20104;SDS011;10212;42.714;23.310;2022-09-27T00:53:30;20.08;;;16.83;;
20104;SDS011;10212;42.714;23.310;2022-09-27T00:58:42;19.75;;;16.75;;
20104;SDS011;10212;42.714;23.310;2022-09-27T01:03:51;20.73;;;16.92;;
20104;SDS011;10212;42.714;23.310;2022-09-27T01:08:59;23.48;;;16.60;;
20104;SDS011;10212;42.714;23.310;2022-09-27T01:30:48;25.92;;;18.65;;
20104;SDS011;10212;42.714;23.310;2022-09-27T01:41:27;29.52;;;19.52;;
20104;SDS011;10212;42.714;23.310;2022-09-27T01:46:37;29.83;;;19.63;;
20104;SDS011;10212;42.714;23.310;2022-09-27T01:51:46;30.17;;;20.27;;
20104;SDS011;10212;42.714;23.310;2022-09-27T01:56:53;32.63;;;21.70;;
20104;SDS011;10212;42.714;23.310;2022-09-27T02:01:57;33.92;;;22.02;;
20104;SDS011;10212;42.714;23.310;2022-09-27T02:07:23;33.42;;;22.05;;
20104;SDS011;10212;42.714;23.310;2022-09-27T02:12:27;36.63;;;22.80;;
20104;SDS011;10212;42.714;23.310;2022-09-27T02:45:03;31.50;;;21.85;;
20104;SDS011;10212;42.714;23.310;2022-09-27T02:55:38;35.35;;;22.10;;
20104;SDS011;10212;42.714;23.310;2022-09-27T03:01:18;36.78;;;22.60;;
20104;SDS011;10212;42.714;23.310;2022-09-27T03:06:39;36.53;;;22.65;;
20104;SDS011;10212;42.714;23.310;2022-09-27T03:11:44;33.85;;;21.60;;
20104;SDS011;10212;42.714;23.310;2022-09-27T03:16:45;31.35;;;21.60;;
20104;SDS011;10212;42.714;23.310;2022-09-27T03:21:45;34.80;;;23.90;;
20104;SDS011;10212;42.714;23.310;2022-09-27T03:26:46;43.45;;;26.13;;
20104;SDS011;10212;42.714;23.310;2022-09-27T03:31:47;33.63;;;22.70;;
20104;SDS011;10212;42.714;23.310;2022-09-27T03:36:48;34.15;;;22.92;;
20104;SDS011;10212;42.714;23.310;2022-09-27T03:41:49;35.28;;;23.83;;
20104;SDS011;10212;42.714;23.310;2022-09-27T03:46:49;35.10;;;23.85;;
20104;SDS011;10212;42.714;23.310;2022-09-27T03:51:50;37.17;;;24.80;;
20104;SDS011;10212;42.714;23.310;2022-09-27T03:56:51;34.83;;;23.88;;
20104;SDS011;10212;42.714;23.310;2022-09-27T04:01:51;41.45;;;25.15;;
20104;SDS011;10212;42.714;23.310;2022-09-27T04:06:52;33.80;;;23.35;;
20104;SDS011;10212;42.714;23.310;2022-09-27T04:11:52;34.05;;;23.75;;
20104;SDS011;10212;42.714;23.310;2022-09-27T04:16:54;36.30;;;23.80;;
20104;SDS011;10212;42.714;23.310;2022-09-27T04:21:54;41.75;;;23.98;;
20104;SDS011;10212;42.714;23.310;2022-09-27T04:26:55;36.58;;;24.77;;
20104;SDS011;10212;42.714;23.310;2022-09-27T04:31:55;32.78;;;22.73;;
20104;SDS011;10212;42.714;23.310;2022-09-27T04:36:56;34.40;;;23.92;;
20104;SDS011;10212;42.714;23.310;2022-09-27T04:41:56;27.13;;;20.40;;
20104;SDS011;10212;42.714;23.310;2022-09-27T04:46:58;33.97;;;24.77;;
20104;SDS011;10212;42.714;23.310;2022-09-27T04:51:59;33.10;;;25.52;;
20104;SDS011;10212;42.714;23.310;2022-09-27T04:56:59;32.42;;;24.13;;
20104;SDS011;10212;42.714;23.310;2022-09-27T05:01:59;36.38;;;24.70;;
20104;SDS011;10212;42.714;23.310;2022-09-27T05:07:00;31.65;;;23.73;;
20104;SDS011;10212;42.714;23.310;2022-09-27T05:12:00;34.03;;;22.70;;
20104;SDS011;10212;42.714;23.310;2022-09-27T05:17:01;29.55;;;20.25;;
20104;SDS011;10212;42.714;23.310;2022-09-27T05:22:02;21.63;;;17.63;;
20104;SDS011;10212;42.714;23.310;2022-09-27T05:27:03;24.65;;;17.83;;
20104;SDS011;10212;42.714;23.310;2022-09-27T05:32:07;24.00;;;19.45;;
20104;SDS011;10212;42.714;23.310;2022-09-27T05:37:07;25.90;;;19.20;;
20104;SDS011;10212;42.714;23.310;2022-09-27T05:42:08;27.98;;;21.48;;
20104;SDS011;10212;42.714;23.310;2022-09-27T05:47:09;29.40;;;21.90;;
20104;SDS011;10212;42.714;23.310;2022-09-27T05:52:10;29.05;;;21.20;;
20104;SDS011;10212;42.714;23.310;2022-09-27T05:57:10;31.45;;;22.45;;
20104;SDS011;10212;42.714;23.310;2022-09-27T06:02:10;30.90;;;22.75;;
20104;SDS011;10212;42.714;23.310;2022-09-27T06:07:11;30.30;;;22.50;;
20104;SDS011;10212;42.714;23.310;2022-09-27T06:12:12;38.30;;;25.85;;
20104;SDS011;10212;42.714;23.310;2022-09-27T06:17:13;35.80;;;26.55;;
20104;SDS011;10212;42.714;23.310;2022-09-27T06:22:13;38.22;;;27.60;;
20104;SDS011;10212;42.714;23.310;2022-09-27T06:27:14;35.17;;;26.38;;
20104;SDS011;10212;42.714;23.310;2022-09-27T06:32:15;33.63;;;25.52;;
20104;SDS011;10212;42.714;23.310;2022-09-27T06:37:15;39.22;;;28.23;;
20104;SDS011;10212;42.714;23.310;2022-09-27T06:42:16;31.48;;;24.75;;
20104;SDS011;10212;42.714;23.310;2022-09-27T06:47:17;37.13;;;26.73;;
20104;SDS011;10212;42.714;23.310;2022-09-27T06:52:18;37.03;;;26.77;;
20104;SDS011;10212;42.714;23.310;2022-09-27T06:57:18;44.40;;;31.73;;
20104;SDS011;10212;42.714;23.310;2022-09-27T07:02:39;41.40;;;30.27;;
20104;SDS011;10212;42.714;23.310;2022-09-27T07:07:39;49.05;;;32.30;;
20104;SDS011;10212;42.714;23.310;2022-09-27T07:12:40;47.95;;;32.50;;
20104;SDS011;10212;42.714;23.310;2022-09-27T07:17:41;51.80;;;33.63;;
20104;SDS011;10212;42.714;23.310;2022-09-27T07:22:41;49.90;;;33.72;;
20104;SDS011;10212;42.714;23.310;2022-09-27T07:27:44;42.38;;;30.45;;
20104;SDS011;10212;42.714;23.310;2022-09-27T07:32:44;48.35;;;32.95;;
20104;SDS011;10212;42.714;23.310;2022-09-27T07:37:45;40.58;;;27.40;;
20104;SDS011;10212;42.714;23.310;2022-09-27T07:42:45;45.97;;;30.33;;
20104;SDS011;10212;42.714;23.310;2022-09-27T07:47:46;42.65;;;30.27;;
20104;SDS011;10212;42.714;23.310;2022-09-27T07:52:48;45.67;;;33.20;;
20104;SDS011;10212;42.714;23.310;2022-09-27T07:57:50;45.42;;;31.25;;
20104;SDS011;10212;42.714;23.310;2022-09-27T08:02:51;42.00;;;30.70;;
20104;SDS011;10212;42.714;23.310;2022-09-27T08:07:54;37.45;;;27.08;;
20104;SDS011;10212;42.714;23.310;2022-09-27T08:12:56;38.33;;;25.70;;
20104;SDS011;10212;42.714;23.310;2022-09-27T08:17:58;32.13;;;24.77;;
20104;SDS011;10212;42.714;23.310;2022-09-27T08:22:58;33.45;;;25.67;;
20104;SDS011;10212;42.714;23.310;2022-09-27T08:28:00;37.88;;;26.58;;
20104;SDS011;10212;42.714;23.310;2022-09-27T08:33:03;41.20;;;28.48;;
20104;SDS011;10212;42.714;23.310;2022-09-27T08:38:04;41.08;;;28.48;;
20104;SDS011;10212;42.714;23.310;2022-09-27T08:43:05;38.30;;;27.13;;
20104;SDS011;10212;42.714;23.310;2022-09-27T08:48:12;34.17;;;25.50;;
20104;SDS011;10212;42.714;23.310;2022-09-27T08:53:25;35.60;;;26.98;;
20104;SDS011;10212;42.714;23.310;2022-09-27T08:58:57;33.73;;;24.77;;
20104;SDS011;10212;42.714;23.310;2022-09-27T09:04:13;30.40;;;22.85;;
20104;SDS011;10212;42.714;23.310;2022-09-27T09:15:11;25.70;;;19.17;;
20104;SDS011;10212;42.714;23.310;2022-09-27T09:25:55;19.27;;;15.07;;
20104;SDS011;10212;42.714;23.310;2022-09-27T09:31:07;16.38;;;13.25;;
20104;SDS011;10212;42.714;23.310;2022-09-27T09:36:26;18.77;;;16.33;;
20104;SDS011;10212;42.714;23.310;2022-09-27T09:42:15;22.95;;;18.75;;
20104;SDS011;10212;42.714;23.310;2022-09-27T09:47:26;18.40;;;16.40;;
20104;SDS011;10212;42.714;23.310;2022-09-27T09:53:18;20.15;;;16.50;;
20104;SDS011;10212;42.714;23.310;2022-09-27T10:03:35;26.92;;;22.80;;
20104;SDS011;10212;42.714;23.310;2022-09-27T10:08:36;15.57;;;13.40;;
20104;SDS011;10212;42.714;23.310;2022-09-27T10:13:37;19.92;;;15.27;;
20104;SDS011;10212;42.714;23.310;2022-09-27T10:18:38;17.13;;;14.30;;
20104;SDS011;10212;42.714;23.310;2022-09-27T10:34:39;15.63;;;11.73;;
20104;SDS011;10212;42.714;23.310;2022-09-27T10:39:41;14.00;;;11.85;;
20104;SDS011;10212;42.714;23.310;2022-09-27T10:44:46;15.05;;;11.70;;
20104;SDS011;10212;42.714;23.310;2022-09-27T10:49:47;13.73;;;11.05;;
20104;SDS011;10212;42.714;23.310;2022-09-27T11:00:00;12.27;;;10.38;;
20104;SDS011;10212;42.714;23.310;2022-09-27T11:05:48;14.40;;;10.55;;
20104;SDS011;10212;42.714;23.310;2022-09-27T11:10:29;12.48;;;10.77;;
20104;SDS011;10212;42.714;23.310;2022-09-27T11:15:34;16.13;;;11.32;;
20104;SDS011;10212;42.714;23.310;2022-09-27T11:20:47;12.25;;;10.93;;
20104;SDS011;10212;42.714;23.310;2022-09-27T11:26:21;11.18;;;9.77;;
20104;SDS011;10212;42.714;23.310;2022-09-27T11:58:49;9.93;;;8.70;;
20104;SDS011;10212;42.714;23.310;2022-09-27T12:09:40;9.70;;;6.28;;
20104;SDS011;10212;42.714;23.310;2022-09-27T12:14:47;10.45;;;5.75;;
20104;SDS011;10212;42.714;23.310;2022-09-27T12:19:52;5.93;;;5.10;;
20104;SDS011;10212;42.714;23.310;2022-09-27T12:24:56;11.48;;;6.45;;
20104;SDS011;10212;42.714;23.310;2022-09-27T12:29:57;11.13;;;6.65;;
20104;SDS011;10212;42.714;23.310;2022-09-27T12:35:14;12.65;;;10.85;;
20104;SDS011;10212;42.714;23.310;2022-09-27T12:40:26;7.32;;;5.97;;
20104;SDS011;10212;42.714;23.310;2022-09-27T12:51:07;8.45;;;5.38;;
20104;SDS011;10212;42.714;23.310;2022-09-27T13:12:18;8.40;;;4.97;;
20104;SDS011;10212;42.714;23.310;2022-09-27T13:22:41;5.90;;;3.78;;
20104;SDS011;10212;42.714;23.310;2022-09-27T13:27:42;9.00;;;4.38;;
20104;SDS011;10212;42.714;23.310;2022-09-27T13:33:19;12.25;;;8.88;;
20104;SDS011;10212;42.714;23.310;2022-09-27T13:38:21;6.47;;;3.90;;
20104;SDS011;10212;42.714;23.310;2022-09-27T13:48:38;5.43;;;2.20;;
20104;SDS011;10212;42.714;23.310;2022-09-27T13:53:59;6.10;;;2.10;;
20104;SDS011;10212;42.714;23.310;2022-09-27T13:59:05;3.92;;;2.53;;
20104;SDS011;10212;42.714;23.310;2022-09-27T14:04:13;4.88;;;2.05;;
20104;SDS011;10212;42.714;23.310;2022-09-27T14:09:19;3.05;;;2.45;;
20104;SDS011;10212;42.714;23.310;2022-09-27T14:14:26;2.22;;;1.50;;
20104;SDS011;10212;42.714;23.310;2022-09-27T14:19:28;3.63;;;2.55;;
20104;SDS011;10212;42.714;23.310;2022-09-27T14:24:30;5.63;;;2.88;;
20104;SDS011;10212;42.714;23.310;2022-09-27T14:29:31;3.60;;;3.00;;
20104;SDS011;10212;42.714;23.310;2022-09-27T14:34:37;9.68;;;5.40;;
20104;SDS011;10212;42.714;23.310;2022-09-27T14:39:38;9.20;;;4.00;;
20104;SDS011;10212;42.714;23.310;2022-09-27T14:44:41;4.95;;;3.75;;
20104;SDS011;10212;42.714;23.310;2022-09-27T14:49:57;11.63;;;3.92;;
20104;SDS011;10212;42.714;23.310;2022-09-27T14:55:00;5.15;;;3.95;;
20104;SDS011;10212;42.714;23.310;2022-09-27T15:00:24;12.55;;;7.53;;
20104;SDS011;10212;42.714;23.310;2022-09-27T15:05:35;15.35;;;6.80;;
20104;SDS011;10212;42.714;23.310;2022-09-27T15:10:40;11.65;;;6.40;;
20104;SDS011;10212;42.714;23.310;2022-09-27T15:15:41;19.27;;;4.85;;
20104;SDS011;10212;42.714;23.310;2022-09-27T15:20:51;11.80;;;4.75;;
20104;SDS011;10212;42.714;23.310;2022-09-27T15:25:57;7.28;;;3.33;;
20104;SDS011;10212;42.714;23.310;2022-09-27T15:31:09;7.93;;;3.47;;
20104;SDS011;10212;42.714;23.310;2022-09-27T15:36:10;7.57;;;3.50;;
20104;SDS011;10212;42.714;23.310;2022-09-27T15:41:18;11.10;;;4.80;;
20104;SDS011;10212;42.714;23.310;2022-09-27T15:46:24;8.48;;;4.28;;
20104;SDS011;10212;42.714;23.310;2022-09-27T15:51:44;16.10;;;6.68;;
20104;SDS011;10212;42.714;23.310;2022-09-27T15:56:46;11.15;;;6.10;;
20104;SDS011;10212;42.714;23.310;2022-09-27T16:01:47;12.43;;;6.53;;
20104;SDS011;10212;42.714;23.310;2022-09-27T16:06:50;9.80;;;5.50;;
20104;SDS011;10212;42.714;23.310;2022-09-27T16:11:52;10.18;;;6.35;;
20104;SDS011;10212;42.714;23.310;2022-09-27T16:16:53;11.68;;;7.20;;
20104;SDS011;10212;42.714;23.310;2022-09-27T16:21:56;9.95;;;6.97;;
20104;SDS011;10212;42.714;23.310;2022-09-27T16:26:57;15.75;;;9.32;;
20104;SDS011;10212;42.714;23.310;2022-09-27T16:31:58;13.50;;;7.53;;
20104;SDS011;10212;42.714;23.310;2022-09-27T16:36:58;14.55;;;9.18;;
20104;SDS011;10212;42.714;23.310;2022-09-27T16:41:59;12.23;;;8.30;;
20104;SDS011;10212;42.714;23.310;2022-09-27T16:47:04;15.20;;;9.38;;
20104;SDS011;10212;42.714;23.310;2022-09-27T16:52:06;15.95;;;11.18;;
20104;SDS011;10212;42.714;23.310;2022-09-27T16:57:09;18.00;;;12.00;;
20104;SDS011;10212;42.714;23.310;2022-09-27T17:02:09;19.83;;;12.10;;
20104;SDS011;10212;42.714;23.310;2022-09-27T17:07:10;17.70;;;12.80;;
20104;SDS011;10212;42.714;23.310;2022-09-27T17:12:11;18.77;;;12.60;;
20104;SDS011;10212;42.714;23.310;2022-09-27T17:17:12;30.92;;;21.42;;
20104;SDS011;10212;42.714;23.310;2022-09-27T17:22:13;20.23;;;14.77;;
20104;SDS011;10212;42.714;23.310;2022-09-27T17:27:13;16.90;;;11.45;;
20104;SDS011;10212;42.714;23.310;2022-09-27T17:32:14;19.57;;;12.03;;
20104;SDS011;10212;42.714;23.310;2022-09-27T17:37:14;18.63;;;13.90;;
20104;SDS011;10212;42.714;23.310;2022-09-27T17:42:14;18.80;;;11.68;;
20104;SDS011;10212;42.714;23.310;2022-09-27T17:47:17;18.50;;;12.57;;
20104;SDS011;10212;42.714;23.310;2022-09-27T17:52:36;16.98;;;11.48;;
20104;SDS011;10212;42.714;23.310;2022-09-27T17:57:37;20.77;;;14.52;;
20104;SDS011;10212;42.714;23.310;2022-09-27T18:02:37;21.77;;;14.98;;
20104;SDS011;10212;42.714;23.310;2022-09-27T18:07:38;23.48;;;15.73;;
20104;SDS011;10212;42.714;23.310;2022-09-27T18:12:38;22.48;;;12.90;;
20104;SDS011;10212;42.714;23.310;2022-09-27T18:17:39;18.98;;;13.27;;
20104;SDS011;10212;42.714;23.310;2022-09-27T18:22:42;23.23;;;13.30;;
20104;SDS011;10212;42.714;23.310;2022-09-27T18:27:43;25.23;;;15.45;;
20104;SDS011;10212;42.714;23.310;2022-09-27T18:32:49;21.27;;;15.68;;
20104;SDS011;10212;42.714;23.310;2022-09-27T18:37:50;42.47;;;28.33;;
20104;SDS011;10212;42.714;23.310;2022-09-27T18:42:50;36.87;;;23.10;;
20104;SDS011;10212;42.714;23.310;2022-09-27T18:47:51;27.17;;;18.92;;
20104;SDS011;10212;42.714;23.310;2022-09-27T18:52:51;23.25;;;17.10;;
20104;SDS011;10212;42.714;23.310;2022-09-27T18:57:52;27.02;;;18.83;;
20104;SDS011;10212;42.714;23.310;2022-09-27T19:02:52;32.25;;;16.95;;
20104;SDS011;10212;42.714;23.310;2022-09-27T19:07:53;22.33;;;16.15;;
20104;SDS011;10212;42.714;23.310;2022-09-27T19:12:53;30.60;;;17.90;;
20104;SDS011;10212;42.714;23.310;2022-09-27T19:17:55;28.90;;;18.98;;
20104;SDS011;10212;42.714;23.310;2022-09-27T19:22:56;30.52;;;18.48;;
20104;SDS011;10212;42.714;23.310;2022-09-27T19:27:56;28.75;;;18.23;;
20104;SDS011;10212;42.714;23.310;2022-09-27T19:32:57;30.05;;;18.65;;
20104;SDS011;10212;42.714;23.310;2022-09-27T19:37:57;32.53;;;19.00;;
20104;SDS011;10212;42.714;23.310;2022-09-27T19:42:58;37.25;;;21.58;;
20104;SDS011;10212;42.714;23.310;2022-09-27T19:48:00;34.55;;;22.42;;
20104;SDS011;10212;42.714;23.310;2022-09-27T19:53:01;43.25;;;22.77;;
20104;SDS011;10212;42.714;23.310;2022-09-27T19:58:01;38.17;;;22.88;;
20104;SDS011;10212;42.714;23.310;2022-09-27T20:03:02;33.73;;;21.73;;
20104;SDS011;10212;42.714;23.310;2022-09-27T20:08:02;42.38;;;24.98;;
20104;SDS011;10212;42.714;23.310;2022-09-27T20:13:03;44.28;;;25.58;;
20104;SDS011;10212;42.714;23.310;2022-09-27T20:18:03;44.13;;;26.42;;
20104;SDS011;10212;42.714;23.310;2022-09-27T20:23:03;41.95;;;25.67;;
20104;SDS011;10212;42.714;23.310;2022-09-27T20:28:04;43.95;;;26.55;;
20104;SDS011;10212;42.714;23.310;2022-09-27T20:33:04;47.30;;;27.27;;
20104;SDS011;10212;42.714;23.310;2022-09-27T20:38:23;42.00;;;24.55;;
20104;SDS011;10212;42.714;23.310;2022-09-27T20:43:24;37.60;;;23.55;;
20104;SDS011;10212;42.714;23.310;2022-09-27T20:48:25;41.58;;;23.52;;
20104;SDS011;10212;42.714;23.310;2022-09-27T20:53:26;39.15;;;24.05;;
20104;SDS011;10212;42.714;23.310;2022-09-27T20:58:27;35.05;;;23.08;;
20104;SDS011;10212;42.714;23.310;2022-09-27T21:03:27;30.58;;;21.33;;
20104;SDS011;10212;42.714;23.310;2022-09-27T21:08:28;36.87;;;22.50;;
20104;SDS011;10212;42.714;23.310;2022-09-27T21:13:32;46.63;;;25.23;;
20104;SDS011;10212;42.714;23.310;2022-09-27T21:18:33;38.90;;;24.42;;
20104;SDS011;10212;42.714;23.310;2022-09-27T21:23:34;48.08;;;25.42;;
20104;SDS011;10212;42.714;23.310;2022-09-27T21:28:36;41.63;;;23.70;;
20104;SDS011;10212;42.714;23.310;2022-09-27T21:33:39;33.58;;;22.45;;
20104;SDS011;10212;42.714;23.310;2022-09-27T21:38:40;54.33;;;34.65;;
20104;SDS011;10212;42.714;23.310;2022-09-27T21:43:40;51.30;;;33.15;;
20104;SDS011;10212;42.714;23.310;2022-09-27T21:48:43;52.45;;;33.38;;
20104;SDS011;10212;42.714;23.310;2022-09-27T21:53:50;52.55;;;33.53;;
20104;SDS011;10212;42.714;23.310;2022-09-27T21:58:51;108.50;;;34.45;;
20104;SDS011;10212;42.714;23.310;2022-09-27T22:03:52;273.38;;;35.58;;
20104;SDS011;10212;42.714;23.310;2022-09-27T22:08:54;313.95;;;38.45;;
20104;SDS011;10212;42.714;23.310;2022-09-27T22:13:56;330.42;;;41.58;;
20104;SDS011;10212;42.714;23.310;2022-09-27T22:18:57;239.25;;;38.15;;
20104;SDS011;10212;42.714;23.310;2022-09-27T22:24:02;338.60;;;35.33;;
20104;SDS011;10212;42.714;23.310;2022-09-27T22:29:05;325.73;;;41.45;;
20104;SDS011;10212;42.714;23.310;2022-09-27T22:34:06;154.05;;;33.08;;
20104;SDS011;10212;42.714;23.310;2022-09-27T22:39:09;124.40;;;33.20;;
20104;SDS011;10212;42.714;23.310;2022-09-27T22:44:10;72.25;;;30.50;;
20104;SDS011;10212;42.714;23.310;2022-09-27T22:49:10;71.32;;;31.17;;
20104;SDS011;10212;42.714;23.310;2022-09-27T22:54:11;81.47;;;32.20;;
20104;SDS011;10212;42.714;23.310;2022-09-27T22:59:12;82.72;;;32.60;;
20104;SDS011;10212;42.714;23.310;2022-09-27T23:04:12;57.65;;;27.27;;
20104;SDS011;10212;42.714;23.310;2022-09-27T23:09:13;57.15;;;27.48;;
20104;SDS011;10212;42.714;23.310;2022-09-27T23:14:13;57.30;;;26.98;;
20104;SDS011;10212;42.714;23.310;2022-09-27T23:19:14;57.22;;;26.27;;
20104;SDS011;10212;42.714;23.310;2022-09-27T23:24:15;60.78;;;27.23;;
20104;SDS011;10212;42.714;23.310;2022-09-27T23:29:16;83.97;;;31.80;;
20104;SDS011;10212;42.714;23.310;2022-09-27T23:34:18;76.43;;;31.60;;
20104;SDS011;10212;42.714;23.310;2022-09-27T23:39:21;147.77;;;39.60;;
20104;SDS011;10212;42.714;23.310;2022-09-27T23:44:21;137.43;;;39.10;;
20104;SDS011;10212;42.714;23.310;2022-09-27T23:49:22;118.18;;;38.55;;
20104;SDS011;10212;42.714;23.310;2022-09-27T23:54:25;197.88;;;41.40;;
20104;SDS011;10212;42.714;23.310;2022-09-27T23:59:26;104.97;;;37.00;;
